createdAt,value
2017-02-04T00:00:07.825Z,0
2017-02-04T00:01:08.280Z,0
2017-02-04T00:02:08.334Z,0
2017-02-04T00:03:08.407Z,0
2017-02-04T00:04:08.444Z,0
2017-02-04T00:05:08.511Z,0
2017-02-04T00:06:08.568Z,0
2017-02-04T00:07:08.223Z,0
2017-02-04T00:08:08.685Z,0
2017-02-04T00:09:08.727Z,0
2017-02-04T00:10:08.387Z,0
2017-02-04T00:11:08.835Z,0
2017-02-04T00:12:08.502Z,0
2017-02-04T00:13:08.947Z,0
2017-02-04T00:14:08.994Z,0
2017-02-04T00:15:09.057Z,0
2017-02-04T00:16:09.117Z,0
2017-02-04T00:17:09.161Z,0
2017-02-04T00:18:09.229Z,0
2017-02-04T00:19:09.260Z,0
2017-02-04T00:20:09.342Z,0
2017-02-04T00:21:09.380Z,0
2017-02-04T00:22:09.449Z,0
2017-02-04T00:23:09.492Z,0
2017-02-04T00:24:09.554Z,0
2017-02-04T00:25:09.590Z,0
2017-02-04T00:26:09.662Z,0
2017-02-04T00:27:09.722Z,0
2017-02-04T00:28:09.762Z,0
2017-02-04T00:29:09.826Z,0
2017-02-04T00:30:09.877Z,0
2017-02-04T00:31:09.930Z,0
2017-02-04T00:32:09.994Z,0
2017-02-04T00:33:10.054Z,0
2017-02-04T00:34:09.709Z,0
2017-02-04T00:35:09.376Z,0
2017-02-04T00:36:10.212Z,0
2017-02-04T00:37:09.872Z,0
2017-02-04T00:38:10.321Z,0
2017-02-04T00:39:09.985Z,0
2017-02-04T00:40:10.426Z,0
2017-02-04T00:41:10.093Z,0
2017-02-04T00:42:10.159Z,0
2017-02-04T00:43:10.220Z,0
2017-02-04T00:44:10.643Z,0
2017-02-04T00:45:10.698Z,0
2017-02-04T00:46:10.749Z,0
2017-02-04T00:47:10.438Z,0
2017-02-04T00:48:10.873Z,0
2017-02-04T00:49:10.908Z,0
2017-02-04T00:50:10.983Z,0
2017-02-04T00:51:10.655Z,0
2017-02-04T00:52:10.706Z,0
2017-02-04T00:53:10.763Z,0
2017-02-04T00:54:11.202Z,0
2017-02-04T00:55:10.881Z,0
2017-02-04T00:56:11.315Z,0
2017-02-04T00:57:11.363Z,0
2017-02-04T00:58:11.033Z,0
2017-02-04T00:59:11.470Z,0
2017-02-04T01:00:11.525Z,0
2017-02-04T01:01:11.184Z,0
2017-02-04T01:02:11.621Z,0
2017-02-04T01:03:11.701Z,0
2017-02-04T01:04:11.754Z,0
2017-02-04T01:05:11.798Z,0
2017-02-04T01:06:11.860Z,0
2017-02-04T01:07:11.907Z,0
2017-02-04T01:08:11.968Z,0
2017-02-04T01:09:12.025Z,0
2017-02-04T01:10:12.082Z,0
2017-02-04T01:11:12.133Z,0
2017-02-04T01:12:12.184Z,0
2017-02-04T01:13:12.256Z,0
2017-02-04T01:14:12.292Z,0
2017-02-04T01:15:11.968Z,0
2017-02-04T01:16:12.411Z,0
2017-02-04T01:17:12.443Z,0
2017-02-04T01:18:12.141Z,0
2017-02-04T01:19:12.563Z,0
2017-02-04T01:20:12.632Z,0
2017-02-04T01:21:12.663Z,0
2017-02-04T01:22:12.343Z,0
2017-02-04T01:23:12.396Z,0
2017-02-04T01:24:12.839Z,0
2017-02-04T01:25:12.882Z,0
2017-02-04T01:26:12.557Z,0
2017-02-04T01:27:13.004Z,0
2017-02-04T01:28:13.075Z,0
2017-02-04T01:29:13.103Z,0
2017-02-04T01:30:13.168Z,0
2017-02-04T01:31:13.235Z,0
2017-02-04T01:32:12.505Z,0
2017-02-04T01:33:13.332Z,0
2017-02-04T01:34:13.000Z,0
2017-02-04T01:35:13.452Z,0
2017-02-04T01:36:13.503Z,0
2017-02-04T01:37:13.571Z,0
2017-02-04T01:38:13.613Z,0
2017-02-04T01:39:13.667Z,0
2017-02-04T01:40:13.725Z,0
2017-02-04T01:41:13.397Z,0
2017-02-04T01:42:13.853Z,0
2017-02-04T01:43:13.504Z,0
2017-02-04T01:44:13.922Z,0
2017-02-04T01:45:14.001Z,0
2017-02-04T01:46:14.050Z,0
2017-02-04T01:47:14.110Z,0
2017-02-04T01:48:14.154Z,0
2017-02-04T01:49:14.230Z,0
2017-02-04T01:50:14.262Z,0
2017-02-04T01:51:14.320Z,0
2017-02-04T01:52:14.384Z,0
2017-02-04T01:53:14.435Z,0
2017-02-04T01:54:14.492Z,0
2017-02-04T01:55:14.531Z,0
2017-02-04T01:56:14.219Z,0
2017-02-04T01:57:14.668Z,0
2017-02-04T01:58:14.712Z,0
2017-02-04T01:59:14.769Z,0
2017-02-04T02:00:14.427Z,0
2017-02-04T02:01:14.471Z,0
2017-02-04T02:02:14.910Z,0
2017-02-04T02:03:14.984Z,0
2017-02-04T02:04:14.649Z,0
2017-02-04T02:05:15.090Z,0
2017-02-04T02:06:15.152Z,0
2017-02-04T02:07:15.182Z,0
2017-02-04T02:08:15.259Z,0
2017-02-04T02:09:15.326Z,0
2017-02-04T02:10:14.962Z,0
2017-02-04T02:11:15.424Z,0
2017-02-04T02:12:14.701Z,0
2017-02-04T02:13:15.532Z,0
2017-02-04T02:14:15.595Z,0
2017-02-04T02:15:15.246Z,0
2017-02-04T02:16:14.921Z,0
2017-02-04T02:17:15.365Z,0
2017-02-04T02:18:15.413Z,0
2017-02-04T02:19:15.867Z,0
2017-02-04T02:20:15.529Z,0
2017-02-04T02:21:15.981Z,0
2017-02-04T02:22:15.627Z,0
2017-02-04T02:23:16.079Z,0
2017-02-04T02:24:16.125Z,0
2017-02-04T02:25:15.782Z,0
2017-02-04T02:26:16.254Z,0
2017-02-04T02:27:16.315Z,0
2017-02-04T02:28:16.357Z,0
2017-02-04T02:29:16.408Z,0
2017-02-04T02:30:16.445Z,0
2017-02-04T02:31:16.135Z,0
2017-02-04T02:32:16.569Z,0
2017-02-04T02:33:16.620Z,0
2017-02-04T02:34:16.685Z,0
2017-02-04T02:35:16.754Z,0
2017-02-04T02:36:16.783Z,0
2017-02-04T02:37:16.835Z,0
2017-02-04T02:38:16.507Z,0
2017-02-04T02:39:16.950Z,0
2017-02-04T02:40:16.999Z,0
2017-02-04T02:41:17.061Z,0
2017-02-04T02:42:16.719Z,0
2017-02-04T02:43:17.164Z,0
2017-02-04T02:44:16.846Z,0
2017-02-04T02:45:17.276Z,0
2017-02-04T02:46:17.345Z,0
2017-02-04T02:47:17.383Z,0
2017-02-04T02:48:17.464Z,0
2017-02-04T02:49:17.519Z,0
2017-02-04T02:50:17.548Z,0
2017-02-04T02:51:17.616Z,0
2017-02-04T02:52:17.279Z,0
2017-02-04T02:53:17.735Z,0
2017-02-04T02:54:17.789Z,0
2017-02-04T02:55:17.834Z,0
2017-02-04T02:56:17.892Z,0
2017-02-04T02:57:17.942Z,0
2017-02-04T02:58:18.012Z,0
2017-02-04T02:59:18.062Z,0
2017-02-04T03:00:18.118Z,0
2017-02-04T03:01:18.159Z,0
2017-02-04T03:02:17.835Z,0
2017-02-04T03:03:18.277Z,0
2017-02-04T03:04:18.331Z,0
2017-02-04T03:05:18.384Z,0
2017-02-04T03:06:18.446Z,0
2017-02-04T03:07:18.489Z,0
2017-02-04T03:08:18.532Z,0
2017-02-04T03:09:18.620Z,0
2017-02-04T03:10:18.663Z,0
2017-02-04T03:11:18.712Z,0
2017-02-04T03:12:18.753Z,0
2017-02-04T03:13:18.817Z,0
2017-02-04T03:14:18.879Z,0
2017-02-04T03:15:18.923Z,0
2017-02-04T03:16:19.000Z,0
2017-02-04T03:17:19.050Z,0
2017-02-04T03:18:19.080Z,0
2017-02-04T03:19:19.149Z,0
2017-02-04T03:20:19.208Z,0
2017-02-04T03:21:19.267Z,0
2017-02-04T03:22:19.321Z,0
2017-02-04T03:23:19.373Z,0
2017-02-04T03:24:19.409Z,0
2017-02-04T03:25:19.483Z,0
2017-02-04T03:26:19.527Z,0
2017-02-04T03:27:19.580Z,0
2017-02-04T03:28:19.637Z,0
2017-02-04T03:29:19.692Z,0
2017-02-04T03:30:19.374Z,0
2017-02-04T03:31:19.421Z,0
2017-02-04T03:32:19.850Z,0
2017-02-04T03:33:19.911Z,0
2017-02-04T03:34:19.593Z,0
2017-02-04T03:35:20.010Z,0
2017-02-04T03:36:20.085Z,0
2017-02-04T03:37:20.138Z,0
2017-02-04T03:38:20.206Z,0
2017-02-04T03:39:20.252Z,0
2017-02-04T03:40:20.306Z,0
2017-02-04T03:41:20.348Z,0
2017-02-04T03:42:20.022Z,0
2017-02-04T03:43:20.464Z,0
2017-02-04T03:44:20.523Z,0
2017-02-04T03:45:20.577Z,0
2017-02-04T03:46:20.251Z,0
2017-02-04T03:47:20.684Z,0
2017-02-04T03:48:20.347Z,0
2017-02-04T03:49:20.798Z,0
2017-02-04T03:50:20.894Z,0
2017-02-04T03:51:20.908Z,0
2017-02-04T03:52:20.956Z,0
2017-02-04T03:53:21.015Z,0
2017-02-04T03:54:21.066Z,0
2017-02-04T03:55:21.140Z,0
2017-02-04T03:56:21.192Z,0
2017-02-04T03:57:21.248Z,0
2017-02-04T03:58:21.295Z,0
2017-02-04T03:59:21.332Z,0
2017-02-04T04:00:21.011Z,0
2017-02-04T04:01:21.439Z,0
2017-02-04T04:02:21.500Z,0
2017-02-04T04:03:21.570Z,0
2017-02-04T04:04:21.623Z,0
2017-02-04T04:05:21.669Z,0
2017-02-04T04:06:21.739Z,0
2017-02-04T04:07:21.794Z,0
2017-02-04T04:08:21.848Z,0
2017-02-04T04:09:21.499Z,0
2017-02-04T04:10:21.997Z,0
2017-02-04T04:11:21.992Z,0
2017-02-04T04:12:22.069Z,0
2017-02-04T04:13:22.109Z,0
2017-02-04T04:14:22.172Z,0
2017-02-04T04:15:22.217Z,0
2017-02-04T04:16:22.278Z,0
2017-02-04T04:17:22.333Z,0
2017-02-04T04:18:22.373Z,0
2017-02-04T04:19:22.455Z,0
2017-02-04T04:20:22.486Z,0
2017-02-04T04:21:22.575Z,0
2017-02-04T04:22:22.605Z,0
2017-02-04T04:23:22.670Z,0
2017-02-04T04:24:22.717Z,0
2017-02-04T04:25:22.781Z,0
2017-02-04T04:26:22.846Z,0
2017-02-04T04:27:22.496Z,0
2017-02-04T04:28:22.954Z,0
2017-02-04T04:29:22.997Z,0
2017-02-04T04:30:23.066Z,0
2017-02-04T04:31:23.113Z,0
2017-02-04T04:32:23.173Z,0
2017-02-04T04:33:23.234Z,0
2017-02-04T04:34:23.265Z,0
2017-02-04T04:35:23.326Z,0
2017-02-04T04:36:23.388Z,0
2017-02-04T04:37:23.432Z,0
2017-02-04T04:38:23.510Z,0
2017-02-04T04:39:23.548Z,0
2017-02-04T04:40:23.605Z,0
2017-02-04T04:41:23.662Z,0
2017-02-04T04:42:23.705Z,0
2017-02-04T04:43:23.764Z,0
2017-02-04T04:44:23.823Z,0
2017-02-04T04:45:23.854Z,0
2017-02-04T04:46:23.552Z,0
2017-02-04T04:47:23.966Z,0
2017-02-04T04:48:24.045Z,0
2017-02-04T04:49:24.091Z,0
2017-02-04T04:50:24.147Z,0
2017-02-04T04:51:24.208Z,0
2017-02-04T04:52:23.871Z,0
2017-02-04T04:53:24.306Z,0
2017-02-04T04:54:24.366Z,0
2017-02-04T04:55:24.425Z,0
2017-02-04T04:56:24.089Z,0
2017-02-04T04:57:24.529Z,0
2017-02-04T04:58:24.582Z,0
2017-02-04T04:59:24.647Z,0
2017-02-04T05:00:24.700Z,0
2017-02-04T05:01:24.749Z,0
2017-02-04T05:02:24.810Z,0
2017-02-04T05:03:24.886Z,0
2017-02-04T05:04:24.938Z,0
2017-02-04T05:05:24.957Z,0
2017-02-04T05:06:25.025Z,0
2017-02-04T05:07:25.085Z,0
2017-02-04T05:08:25.125Z,0
2017-02-04T05:09:25.184Z,0
2017-02-04T05:10:25.260Z,0
2017-02-04T05:11:25.308Z,0
2017-02-04T05:12:25.369Z,0
2017-02-04T05:13:25.033Z,0
2017-02-04T05:14:25.469Z,0
2017-02-04T05:15:25.527Z,0
2017-02-04T05:16:25.558Z,0
2017-02-04T05:17:25.638Z,0
2017-02-04T05:18:25.694Z,0
2017-02-04T05:19:25.762Z,0
2017-02-04T05:20:25.798Z,0
2017-02-04T05:21:25.847Z,0
2017-02-04T05:22:25.912Z,0
2017-02-04T05:23:25.948Z,0
2017-02-04T05:24:26.017Z,0
2017-02-04T05:25:26.066Z,0
2017-02-04T05:26:26.119Z,0
2017-02-04T05:27:26.189Z,0
2017-02-04T05:28:26.249Z,0
2017-02-04T05:29:26.283Z,0
2017-02-04T05:30:26.352Z,0
2017-02-04T05:31:26.402Z,0
2017-02-04T05:32:26.448Z,0
2017-02-04T05:33:26.515Z,0
2017-02-04T05:34:26.184Z,0
2017-02-04T05:35:26.623Z,0
2017-02-04T05:36:26.735Z,0
2017-02-04T05:37:26.724Z,0
2017-02-04T05:38:26.799Z,0
2017-02-04T05:39:26.851Z,0
2017-02-04T05:40:26.521Z,0
2017-02-04T05:41:26.961Z,0
2017-02-04T05:42:27.009Z,0
2017-02-04T05:43:27.063Z,0
2017-02-04T05:44:27.113Z,0
2017-02-04T05:45:27.176Z,0
2017-02-04T05:46:27.227Z,0
2017-02-04T05:47:27.271Z,0
2017-02-04T05:48:27.353Z,0
2017-02-04T05:49:27.383Z,0
2017-02-04T05:50:27.444Z,0
2017-02-04T05:51:27.505Z,0
2017-02-04T05:52:27.180Z,0
2017-02-04T05:53:27.613Z,0
2017-02-04T05:54:27.656Z,0
2017-02-04T05:55:27.725Z,0
2017-02-04T05:56:27.768Z,0
2017-02-04T05:57:27.826Z,0
2017-02-04T05:58:27.891Z,0
2017-02-04T05:59:27.973Z,0
2017-02-04T06:00:27.620Z,0
2017-02-04T06:01:27.645Z,0
2017-02-04T06:02:28.089Z,0
2017-02-04T06:03:28.168Z,0
2017-02-04T06:04:28.208Z,0
2017-02-04T06:05:28.250Z,0
2017-02-04T06:06:28.318Z,0
2017-02-04T06:07:28.382Z,0
2017-02-04T06:08:28.445Z,0
2017-02-04T06:09:28.487Z,0
2017-02-04T06:10:28.535Z,0
2017-02-04T06:11:28.604Z,0
2017-02-04T06:12:28.642Z,0
2017-02-04T06:13:28.704Z,0
2017-02-04T06:14:28.762Z,0
2017-02-04T06:15:28.815Z,0
2017-02-04T06:16:28.861Z,0
2017-02-04T06:17:28.916Z,0
2017-02-04T06:18:28.971Z,0
2017-02-04T06:19:29.027Z,0
2017-02-04T06:20:28.695Z,0
2017-02-04T06:21:29.148Z,0
2017-02-04T06:22:28.797Z,0
2017-02-04T06:23:29.243Z,0
2017-02-04T06:24:29.320Z,0
2017-02-04T06:25:29.343Z,0
2017-02-04T06:26:29.419Z,0
2017-02-04T06:27:29.081Z,0
2017-02-04T06:28:29.135Z,0
2017-02-04T06:29:29.582Z,0
2017-02-04T06:30:29.649Z,0
2017-02-04T06:31:29.320Z,0
2017-02-04T06:32:29.741Z,0
2017-02-04T06:33:29.418Z,0
2017-02-04T06:34:29.846Z,0
2017-02-04T06:35:29.917Z,0
2017-02-04T06:36:29.974Z,0
2017-02-04T06:37:30.021Z,0
2017-02-04T06:38:30.062Z,0
2017-02-04T06:39:30.141Z,0
2017-02-04T06:40:29.807Z,0
2017-02-04T06:41:30.230Z,0
2017-02-04T06:42:29.888Z,0
2017-02-04T06:43:30.360Z,0
2017-02-04T06:44:30.404Z,0
2017-02-04T06:45:30.460Z,0
2017-02-04T06:46:30.513Z,0
2017-02-04T06:47:30.570Z,0
2017-02-04T06:48:30.604Z,0
2017-02-04T06:49:30.667Z,0
2017-02-04T06:50:30.736Z,0
2017-02-04T06:51:30.779Z,0
2017-02-04T06:52:30.838Z,0
2017-02-04T06:53:30.885Z,0
2017-02-04T06:54:30.939Z,0
2017-02-04T06:55:31.011Z,0
2017-02-04T06:56:31.049Z,5
2017-02-04T06:57:31.108Z,0
2017-02-04T06:58:31.151Z,0
2017-02-04T06:59:31.223Z,5
2017-02-04T07:00:31.268Z,5
2017-02-04T07:01:31.332Z,5
2017-02-04T07:02:31.005Z,5
2017-02-04T07:03:31.453Z,5
2017-02-04T07:04:31.501Z,5
2017-02-04T07:05:31.163Z,5
2017-02-04T07:06:31.616Z,5
2017-02-04T07:07:31.654Z,10
2017-02-04T07:08:31.706Z,5
2017-02-04T07:09:31.764Z,5
2017-02-04T07:10:31.820Z,5
2017-02-04T07:11:31.879Z,10
2017-02-04T07:12:31.928Z,10
2017-02-04T07:13:31.605Z,10
2017-02-04T07:14:31.664Z,10
2017-02-04T07:15:31.712Z,10
2017-02-04T07:16:32.159Z,10
2017-02-04T07:17:31.809Z,10
2017-02-04T07:18:31.889Z,10
2017-02-04T07:19:32.314Z,5
2017-02-04T07:20:32.381Z,10
2017-02-04T07:21:32.430Z,10
2017-02-04T07:22:32.098Z,5
2017-02-04T07:23:32.537Z,5
2017-02-04T07:24:32.582Z,10
2017-02-04T07:25:32.655Z,10
2017-02-04T07:26:32.688Z,10
2017-02-04T07:27:32.755Z,5
2017-02-04T07:28:32.819Z,5
2017-02-04T07:29:32.874Z,5
2017-02-04T07:30:32.927Z,10
2017-02-04T07:31:32.983Z,15
2017-02-04T07:32:33.031Z,15
2017-02-04T07:33:33.091Z,15
2017-02-04T07:34:33.151Z,15
2017-02-04T07:35:33.192Z,15
2017-02-04T07:36:33.257Z,15
2017-02-04T07:37:33.315Z,10
2017-02-04T07:38:33.349Z,10
2017-02-04T07:39:33.420Z,10
2017-02-04T07:40:33.483Z,15
2017-02-04T07:41:33.524Z,15
2017-02-04T07:42:33.603Z,10
2017-02-04T07:43:33.646Z,10
2017-02-04T07:44:33.700Z,10
2017-02-04T07:45:33.748Z,15
2017-02-04T07:46:33.810Z,10
2017-02-04T07:47:33.850Z,15
2017-02-04T07:48:33.918Z,10
2017-02-04T07:49:33.981Z,10
2017-02-04T07:50:34.025Z,10
2017-02-04T07:51:34.079Z,10
2017-02-04T07:52:34.146Z,15
2017-02-04T07:53:34.194Z,15
2017-02-04T07:54:34.266Z,20
2017-02-04T07:55:33.932Z,15
2017-02-04T07:56:33.988Z,15
2017-02-04T07:57:34.418Z,15
2017-02-04T07:58:34.129Z,15
2017-02-04T07:59:34.150Z,15
2017-02-04T08:00:34.585Z,15
2017-02-04T08:01:34.640Z,20
2017-02-04T08:02:34.681Z,20
2017-02-04T08:03:34.755Z,20
2017-02-04T08:04:35.009Z,20
2017-02-04T08:05:34.849Z,20
2017-02-04T08:06:34.531Z,25
2017-02-04T08:07:34.959Z,25
2017-02-04T08:08:35.027Z,25
2017-02-04T08:09:35.071Z,25
2017-02-04T08:10:35.144Z,25
2017-02-04T08:11:35.191Z,25
2017-02-04T08:12:35.259Z,25
2017-02-04T08:13:35.281Z,25
2017-02-04T08:14:35.358Z,25
2017-02-04T08:15:35.403Z,30
2017-02-04T08:16:35.458Z,30
2017-02-04T08:17:35.536Z,30
2017-02-04T08:18:35.579Z,25
2017-02-04T08:19:35.632Z,25
2017-02-04T08:20:35.679Z,20
2017-02-04T08:21:35.747Z,15
2017-02-04T08:22:35.797Z,15
2017-02-04T08:23:35.855Z,15
2017-02-04T08:24:35.900Z,15
2017-02-04T08:25:35.980Z,15
2017-02-04T08:26:36.005Z,15
2017-02-04T08:27:36.292Z,15
2017-02-04T08:28:36.141Z,15
2017-02-04T08:29:36.180Z,15
2017-02-04T08:30:36.239Z,20
2017-02-04T08:31:36.300Z,20
2017-02-04T08:32:36.361Z,20
2017-02-04T08:33:36.402Z,25
2017-02-04T08:34:36.463Z,25
2017-02-04T08:35:36.513Z,25
2017-02-04T08:36:36.571Z,25
2017-02-04T08:37:36.838Z,20
2017-02-04T08:38:36.690Z,20
2017-02-04T08:39:35.963Z,20
2017-02-04T08:40:36.800Z,25
2017-02-04T08:41:36.476Z,25
2017-02-04T08:42:36.915Z,25
2017-02-04T08:43:37.182Z,25
2017-02-04T08:44:36.639Z,20
2017-02-04T08:45:36.686Z,20
2017-02-04T08:46:37.146Z,20
2017-02-04T08:47:37.191Z,25
2017-02-04T08:48:37.241Z,30
2017-02-04T08:49:37.293Z,35
2017-02-04T08:50:37.352Z,35
2017-02-04T08:51:37.422Z,35
2017-02-04T08:52:37.483Z,30
2017-02-04T08:53:37.518Z,35
2017-02-04T08:54:37.574Z,35
2017-02-04T08:55:37.628Z,35
2017-02-04T08:56:37.306Z,35
2017-02-04T08:57:37.357Z,35
2017-02-04T08:58:37.807Z,35
2017-02-04T08:59:37.479Z,35
2017-02-04T09:00:37.913Z,35
2017-02-04T09:01:37.577Z,35
2017-02-04T09:02:38.037Z,30
2017-02-04T09:03:38.061Z,35
2017-02-04T09:04:38.124Z,35
2017-02-04T09:05:38.380Z,35
2017-02-04T09:06:38.230Z,35
2017-02-04T09:07:38.289Z,35
2017-02-04T09:08:38.352Z,35
2017-02-04T09:09:38.413Z,35
2017-02-04T09:10:38.694Z,35
2017-02-04T09:11:38.717Z,35
2017-02-04T09:12:38.575Z,35
2017-02-04T09:13:38.620Z,35
2017-02-04T09:14:38.681Z,35
2017-02-04T09:15:38.745Z,35
2017-02-04T09:16:38.794Z,35
2017-02-04T09:17:38.475Z,35
2017-02-04T09:18:38.921Z,30
2017-02-04T09:19:38.592Z,30
2017-02-04T09:20:39.031Z,30
2017-02-04T09:21:39.065Z,30
2017-02-04T09:22:39.131Z,35
2017-02-04T09:23:39.192Z,35
2017-02-04T09:24:39.242Z,30
2017-02-04T09:25:38.909Z,30
2017-02-04T09:26:39.362Z,30
2017-02-04T09:27:39.396Z,25
2017-02-04T09:28:38.699Z,30
2017-02-04T09:29:39.539Z,25
2017-02-04T09:30:39.563Z,25
2017-02-04T09:31:39.643Z,25
2017-02-04T09:32:39.303Z,25
2017-02-04T09:33:39.733Z,25
2017-02-04T09:34:39.803Z,30
2017-02-04T09:35:39.484Z,30
2017-02-04T09:36:39.911Z,25
2017-02-04T09:37:39.968Z,25
2017-02-04T09:38:40.031Z,25
2017-02-04T09:39:40.287Z,25
2017-02-04T09:40:40.141Z,20
2017-02-04T09:41:40.209Z,20
2017-02-04T09:42:40.258Z,20
2017-02-04T09:43:40.309Z,20
2017-02-04T09:44:40.547Z,15
2017-02-04T09:45:40.038Z,15
2017-02-04T09:46:55.007Z,15
2017-02-04T09:47:40.521Z,15
2017-02-04T09:48:40.585Z,15
2017-02-04T09:49:40.653Z,15
2017-02-04T09:50:40.693Z,20
2017-02-04T09:51:40.744Z,20
2017-02-04T09:52:40.793Z,20
2017-02-04T09:53:40.849Z,20
2017-02-04T09:54:40.541Z,20
2017-02-04T09:55:40.981Z,25
2017-02-04T09:56:41.018Z,25
2017-02-04T09:57:41.090Z,25
2017-02-04T09:58:41.139Z,30
2017-02-04T09:59:41.204Z,30
2017-02-04T10:00:41.251Z,30
2017-02-04T10:01:41.304Z,30
2017-02-04T10:02:40.980Z,35
2017-02-04T10:03:41.409Z,40
2017-02-04T10:04:41.464Z,50
2017-02-04T10:05:41.144Z,70
2017-02-04T10:06:41.594Z,70
2017-02-04T10:07:41.630Z,70
2017-02-04T10:08:41.265Z,105
2017-02-04T10:09:41.753Z,120
2017-02-04T10:10:41.820Z,160
2017-02-04T10:11:41.866Z,220
2017-02-04T10:12:42.116Z,300
2017-02-04T10:13:42.167Z,340
2017-02-04T10:14:42.044Z,285
2017-02-04T10:15:42.109Z,240
2017-02-04T10:16:42.143Z,320
2017-02-04T10:17:42.211Z,285
2017-02-04T10:18:55.519Z,355
2017-02-04T10:19:42.505Z,350
2017-02-04T10:20:42.366Z,375
2017-02-04T10:21:42.446Z,315
2017-02-04T10:22:42.483Z,290
2017-02-04T10:23:42.555Z,350
2017-02-04T10:24:42.807Z,365
2017-02-04T10:25:42.651Z,375
2017-02-04T10:26:42.705Z,370
2017-02-04T10:27:42.770Z,355
2017-02-04T10:28:42.821Z,340
2017-02-04T10:29:42.894Z,265
2017-02-04T10:30:42.547Z,250
2017-02-04T10:31:43.008Z,270
2017-02-04T10:32:42.675Z,270
2017-02-04T10:33:43.097Z,225
2017-02-04T10:34:43.172Z,245
2017-02-04T10:35:42.833Z,230
2017-02-04T10:36:42.884Z,235
2017-02-04T10:37:43.331Z,240
2017-02-04T10:38:43.382Z,205
2017-02-04T10:39:43.425Z,220
2017-02-04T10:40:43.501Z,240
2017-02-04T10:41:43.570Z,235
2017-02-04T10:42:43.617Z,205
2017-02-04T10:43:43.651Z,200
2017-02-04T10:44:43.719Z,205
2017-02-04T10:45:43.798Z,175
2017-02-04T10:46:44.037Z,160
2017-02-04T10:47:44.108Z,165
2017-02-04T10:48:43.992Z,150
2017-02-04T10:49:44.026Z,110
2017-02-04T10:50:44.064Z,75
2017-02-04T10:51:44.104Z,50
2017-02-04T10:52:57.800Z,40
2017-02-04T10:53:44.221Z,35
2017-02-04T10:54:44.297Z,30
2017-02-04T10:55:44.335Z,30
2017-02-04T10:56:44.382Z,30
2017-02-04T10:57:44.472Z,35
2017-02-04T10:58:44.718Z,30
2017-02-04T10:59:44.175Z,25
2017-02-04T11:00:44.616Z,20
2017-02-04T11:01:44.668Z,20
2017-02-04T11:02:44.725Z,20
2017-02-04T11:03:44.806Z,20
2017-02-04T11:04:44.454Z,15
2017-02-04T11:05:44.908Z,15
2017-02-04T11:06:44.965Z,15
2017-02-04T11:07:45.009Z,15
2017-02-04T11:08:45.084Z,10
2017-02-04T11:09:45.135Z,10
2017-02-04T11:10:45.201Z,10
2017-02-04T11:11:45.246Z,10
2017-02-04T11:12:45.311Z,10
2017-02-04T11:13:45.365Z,10
2017-02-04T11:14:45.425Z,10
2017-02-04T11:15:45.460Z,10
2017-02-04T11:16:45.541Z,10
2017-02-04T11:17:45.577Z,10
2017-02-04T11:18:45.249Z,10
2017-02-04T11:19:45.690Z,10
2017-02-04T11:20:45.747Z,10
2017-02-04T11:21:45.813Z,10
2017-02-04T11:22:45.867Z,10
2017-02-04T11:23:45.926Z,5
2017-02-04T11:24:45.967Z,5
2017-02-04T11:25:46.045Z,5
2017-02-04T11:26:46.304Z,5
2017-02-04T11:27:46.144Z,5
2017-02-04T11:28:46.211Z,5
2017-02-04T11:29:46.247Z,5
2017-02-04T11:30:46.326Z,5
2017-02-04T11:31:46.365Z,5
2017-02-04T11:32:46.406Z,5
2017-02-04T11:33:46.472Z,5
2017-02-04T11:34:46.539Z,5
2017-02-04T11:35:46.596Z,5
2017-02-04T11:36:46.662Z,5
2017-02-04T11:37:46.701Z,5
2017-02-04T11:38:46.789Z,5
2017-02-04T11:39:46.819Z,5
2017-02-04T11:40:46.867Z,5
2017-02-04T11:41:46.932Z,5
2017-02-04T11:42:46.968Z,5
2017-02-04T11:43:47.032Z,5
2017-02-04T11:44:47.100Z,10
2017-02-04T11:45:47.157Z,10
2017-02-04T11:46:46.828Z,10
2017-02-04T11:47:47.259Z,10
2017-02-04T11:48:47.333Z,10
2017-02-04T11:49:47.388Z,10
2017-02-04T11:50:47.431Z,10
2017-02-04T11:51:47.493Z,10
2017-02-04T11:52:47.191Z,10
2017-02-04T11:53:47.619Z,10
2017-02-04T11:54:47.667Z,10
2017-02-04T11:55:47.342Z,10
2017-02-04T11:56:47.768Z,10
2017-02-04T11:57:47.842Z,10
2017-02-04T11:58:47.885Z,10
2017-02-04T11:59:47.933Z,10
2017-02-04T12:00:47.999Z,10
2017-02-04T12:01:48.055Z,10
2017-02-04T12:02:48.112Z,10
2017-02-04T12:03:48.170Z,10
2017-02-04T12:04:48.213Z,10
2017-02-04T12:05:48.287Z,10
2017-02-04T12:06:48.339Z,10
2017-02-04T12:07:48.415Z,15
2017-02-04T12:08:48.435Z,15
2017-02-04T12:09:48.495Z,15
2017-02-04T12:10:48.547Z,15
2017-02-04T12:11:48.612Z,10
2017-02-04T12:12:48.679Z,15
2017-02-04T12:13:48.727Z,15
2017-02-04T12:14:48.779Z,15
2017-02-04T12:15:48.828Z,15
2017-02-04T12:16:48.885Z,15
2017-02-04T12:17:48.946Z,10
2017-02-04T12:18:49.007Z,10
2017-02-04T12:19:49.052Z,10
2017-02-04T12:20:49.120Z,10
2017-02-04T12:21:49.172Z,10
2017-02-04T12:22:49.224Z,10
2017-02-04T12:23:49.264Z,10
2017-02-04T12:24:49.338Z,10
2017-02-04T12:25:49.379Z,10
2017-02-04T12:26:49.468Z,10
2017-02-04T12:27:49.521Z,10
2017-02-04T12:28:49.566Z,10
2017-02-04T12:29:49.612Z,10
2017-02-04T12:30:49.667Z,10
2017-02-04T12:31:49.344Z,10
2017-02-04T12:32:49.021Z,10
2017-02-04T12:33:49.844Z,10
2017-02-04T12:34:49.516Z,10
2017-02-04T12:35:49.567Z,10
2017-02-04T12:36:50.012Z,5
2017-02-04T12:37:50.068Z,5
2017-02-04T12:38:49.736Z,5
2017-02-04T12:39:49.776Z,5
2017-02-04T12:40:50.218Z,5
2017-02-04T12:41:50.297Z,10
2017-02-04T12:42:50.338Z,10
2017-02-04T12:43:50.404Z,10
2017-02-04T12:44:50.449Z,10
2017-02-04T12:45:50.515Z,15
2017-02-04T12:46:50.559Z,15
2017-02-04T12:47:50.620Z,15
2017-02-04T12:48:50.676Z,15
2017-02-04T12:49:50.740Z,15
2017-02-04T12:50:50.799Z,10
2017-02-04T12:51:50.846Z,10
2017-02-04T12:52:50.902Z,10
2017-02-04T12:53:50.957Z,10
2017-02-04T12:54:51.015Z,10
2017-02-04T12:55:51.066Z,10
2017-02-04T12:56:51.124Z,10
2017-02-04T12:57:51.185Z,10
2017-02-04T12:58:51.226Z,10
2017-02-04T12:59:51.295Z,10
2017-02-04T13:00:51.346Z,10
2017-02-04T13:01:51.414Z,10
2017-02-04T13:02:51.469Z,5
2017-02-04T13:03:51.531Z,5
2017-02-04T13:04:51.578Z,5
2017-02-04T13:05:51.637Z,5
2017-02-04T13:06:51.681Z,5
2017-02-04T13:07:51.738Z,5
2017-02-04T13:08:51.796Z,5
2017-02-04T13:09:51.890Z,5
2017-02-04T13:10:51.915Z,5
2017-02-04T13:11:52.010Z,5
2017-02-04T13:12:52.025Z,5
2017-02-04T13:13:52.073Z,5
2017-02-04T13:14:52.132Z,5
2017-02-04T13:15:52.196Z,5
2017-02-04T13:16:52.239Z,5
2017-02-04T13:17:52.309Z,5
2017-02-04T13:18:52.354Z,5
2017-02-04T13:19:52.398Z,5
2017-02-04T13:20:52.476Z,5
2017-02-04T13:21:52.530Z,5
2017-02-04T13:22:52.569Z,5
2017-02-04T13:23:52.642Z,5
2017-02-04T13:24:52.714Z,5
2017-02-04T13:25:52.762Z,5
2017-02-04T13:26:52.409Z,5
2017-02-04T13:27:52.855Z,5
2017-02-04T13:28:52.912Z,5
2017-02-04T13:29:52.965Z,5
2017-02-04T13:30:53.022Z,5
2017-02-04T13:31:53.088Z,5
2017-02-04T13:32:53.139Z,5
2017-02-04T13:33:53.184Z,5
2017-02-04T13:34:53.266Z,5
2017-02-04T13:35:53.297Z,5
2017-02-04T13:36:53.365Z,5
2017-02-04T13:37:53.411Z,5
2017-02-04T13:38:53.485Z,5
2017-02-04T13:39:53.136Z,5
2017-02-04T13:40:53.580Z,5
2017-02-04T13:41:53.641Z,5
2017-02-04T13:42:53.702Z,5
2017-02-04T13:43:53.760Z,5
2017-02-04T13:44:53.812Z,5
2017-02-04T13:45:53.908Z,5
2017-02-04T13:46:53.923Z,5
2017-02-04T13:47:53.980Z,5
2017-02-04T13:48:54.018Z,5
2017-02-04T13:49:54.075Z,5
2017-02-04T13:50:54.151Z,5
2017-02-04T13:51:53.812Z,5
2017-02-04T13:52:53.867Z,5
2017-02-04T13:53:53.915Z,5
2017-02-04T13:54:53.987Z,5
2017-02-04T13:55:54.436Z,5
2017-02-04T13:56:54.471Z,5
2017-02-04T13:57:54.531Z,5
2017-02-04T13:58:54.586Z,5
2017-02-04T13:59:54.260Z,5
2017-02-04T14:00:54.693Z,5
2017-02-04T14:01:54.747Z,5
2017-02-04T14:02:54.813Z,5
2017-02-04T14:03:54.492Z,5
2017-02-04T14:04:54.909Z,5
2017-02-04T14:05:54.979Z,5
2017-02-04T14:06:55.034Z,5
2017-02-04T14:07:55.089Z,5
2017-02-04T14:08:55.135Z,5
2017-02-04T14:09:55.197Z,5
2017-02-04T14:10:55.260Z,5
2017-02-04T14:11:55.312Z,5
2017-02-04T14:12:55.381Z,5
2017-02-04T14:13:55.420Z,5
2017-02-04T14:14:55.473Z,5
2017-02-04T14:15:55.524Z,5
2017-02-04T14:16:55.584Z,5
2017-02-04T14:17:55.629Z,5
2017-02-04T14:18:55.688Z,5
2017-02-04T14:19:55.353Z,5
2017-02-04T14:20:55.818Z,5
2017-02-04T14:21:55.861Z,5
2017-02-04T14:22:55.934Z,5
2017-02-04T14:23:55.993Z,5
2017-02-04T14:24:56.025Z,5
2017-02-04T14:25:56.082Z,5
2017-02-04T14:26:56.148Z,5
2017-02-04T14:27:56.218Z,5
2017-02-04T14:28:56.264Z,5
2017-02-04T14:29:56.310Z,5
2017-02-04T14:30:56.360Z,5
2017-02-04T14:31:56.415Z,5
2017-02-04T14:32:56.491Z,5
2017-02-04T14:33:56.543Z,5